Главная страница
METAR-TAF:

METAR-TAF

Аэропорты :

Лаппеэнранта, Финляндия

широта: 61-02-45N, долгота: 028-08-55E, высота над уровнем моря: 106 м

Текущие метеонаблюдения

Эта сводка был подготовлена 35 минут назад, в 11:20 UTC
Ветер 7 Узел от южный-юго-западный, изменяющийся между юго-восточный и западный-юго-западный
Температура 9°C
Влажность 87%
Давление 1019 hPa
Видимость 10 км и более
Отдельные облака на высоте 1300 фута
Отдельные облака на высоте 3900 фута

METAR: EFLP 211120Z 20007KT 140V240 9999 SCT013 SCT039 09/07 Q1019

Время: 14:55 (11:55 UTC)

Прогноз

Эта сводка был подготовлена 17 минут назад, в 11:38 UTC
Прогноз действительный с 21-го 12 UTC до 21-го 15 UTC
Ветер 8 Узел от южный-юго-западный
Видимость 10 км и более
Отдельные облака на высоте 1300 фута
Рассеянная облачность на высоте 4000 фута

TAF: EFLP 211138Z 2112/2115 20008KT 9999 SCT013 BKN040

Метеонаблюдения и прогнозы для более 4000 аэропортов (сводки METAR и TAF).

Имеющиеся станции представлены на карте желтыми и красными точками.

Чтобы увидеть название станции, наведите на нее мышь.

Затем щелкните, чтобы увидеть метеонаблюдения и метеопрогнозы.

Управление картой: чтобы увеличить масштаб, щелкните зеленые кнопки с черным крестиком; чтобы уменьшить масштаб, щелкните зеленую кнопку с тире; для просмотра соседних карт щелкайте зеленые стрелки.


METAR-TAF: